createdAt,value
2023-05-15T00:01:30.860Z,20.73
2023-05-15T00:04:34.091Z,11.63
2023-05-15T00:07:39.509Z,11.57
2023-05-15T00:10:50.475Z,11.37
2023-05-15T00:14:03.129Z,9.80
2023-05-15T00:17:06.606Z,9.80
2023-05-15T00:20:10.343Z,11.47
2023-05-15T00:23:14.892Z,10.97
2023-05-15T00:26:18.032Z,10.33
2023-05-15T00:29:21.160Z,10.93
2023-05-15T00:32:24.349Z,9.97
2023-05-15T00:35:27.502Z,8.93
2023-05-15T00:38:33.606Z,8.63
2023-05-15T00:41:37.784Z,5.93
2023-05-15T00:44:42.571Z,5.23
2023-05-15T00:47:46.781Z,5.97
2023-05-15T00:50:51.561Z,6.03
2023-05-15T00:53:56.808Z,6.43
2023-05-15T00:57:01.175Z,4.63
2023-05-15T01:00:07.147Z,4.50
2023-05-15T01:03:10.643Z,3.50
2023-05-15T01:06:14.289Z,3.33
2023-05-15T01:09:19.845Z,3.67
2023-05-15T01:12:27.054Z,4.30
2023-05-15T01:15:30.133Z,4.30
2023-05-15T01:18:33.606Z,4.60
2023-05-15T01:21:58.795Z,3.33
2023-05-15T01:25:31.705Z,4.10
2023-05-15T01:28:42.582Z,3.70
2023-05-15T01:31:50.611Z,3.20
2023-05-15T01:34:59.156Z,3.33
2023-05-15T01:38:14.214Z,3.33
2023-05-15T01:41:22.286Z,2.93
2023-05-15T01:44:30.144Z,3.10
2023-05-15T01:47:37.780Z,3.10
2023-05-15T01:50:42.095Z,2.97
2023-05-15T01:53:46.649Z,3.07
2023-05-15T01:56:50.763Z,2.80
2023-05-15T01:59:56.521Z,3.17
2023-05-15T02:03:00.701Z,2.43
2023-05-15T02:06:06.028Z,2.50
2023-05-15T02:09:10.510Z,2.83
2023-05-15T02:12:14.629Z,2.80
2023-05-15T02:15:19.907Z,3.53
2023-05-15T02:18:23.407Z,3.77
2023-05-15T02:21:27.373Z,3.87
2023-05-15T02:24:30.487Z,4.10
2023-05-15T02:27:40.054Z,3.10
2023-05-15T02:30:55.018Z,2.83
2023-05-15T02:34:10.033Z,5.63
2023-05-15T02:37:18.254Z,4.00
2023-05-15T02:40:24.029Z,3.27
2023-05-15T02:43:28.375Z,3.60
2023-05-15T02:46:33.549Z,3.93
2023-05-15T02:49:37.631Z,4.17
2023-05-15T02:52:40.764Z,3.03
2023-05-15T02:55:43.853Z,3.57
2023-05-15T02:58:47.089Z,3.50
2023-05-15T03:01:52.187Z,4.40
2023-05-15T03:04:55.436Z,3.63
2023-05-15T03:07:59.400Z,3.23
2023-05-15T03:11:02.502Z,9.07
2023-05-15T03:14:05.549Z,10.97
2023-05-15T03:17:10.103Z,10.90
2023-05-15T03:20:16.429Z,9.03
2023-05-15T03:23:19.560Z,16.67
2023-05-15T03:26:23.169Z,11.77
2023-05-15T03:29:26.277Z,20.30
2023-05-15T03:32:30.818Z,10.70
2023-05-15T03:35:33.947Z,14.23
2023-05-15T03:38:37.123Z,11.80
2023-05-15T03:41:40.249Z,12.27
2023-05-15T03:44:43.439Z,10.43
2023-05-15T03:47:48.456Z,9.90
2023-05-15T03:50:53.375Z,12.93
2023-05-15T03:53:56.604Z,9.10
2023-05-15T03:56:59.781Z,10.13
2023-05-15T04:00:07.433Z,10.53
2023-05-15T04:03:11.979Z,9.73
2023-05-15T04:06:15.226Z,9.20
2023-05-15T04:09:18.387Z,8.10
2023-05-15T04:12:22.260Z,9.37
2023-05-15T04:15:28.746Z,10.10
2023-05-15T04:18:33.357Z,7.40
2023-05-15T04:21:36.513Z,7.90
2023-05-15T04:24:39.568Z,7.90
2023-05-15T04:27:43.777Z,6.93
2023-05-15T04:30:46.956Z,8.70
2023-05-15T04:33:51.483Z,8.23
2023-05-15T04:36:54.590Z,7.80
2023-05-15T04:39:57.740Z,8.30
2023-05-15T04:43:00.845Z,6.77
2023-05-15T04:46:04.046Z,13.90
2023-05-15T04:49:08.647Z,8.87
2023-05-15T04:52:12.134Z,8.83
2023-05-15T04:55:15.270Z,7.00
2023-05-15T04:58:18.423Z,6.50
2023-05-15T05:01:24.401Z,5.40
2023-05-15T05:04:28.906Z,5.40
2023-05-15T05:07:32.083Z,4.40
2023-05-15T05:10:35.221Z,4.33
2023-05-15T05:13:38.336Z,4.83
2023-05-15T05:16:41.896Z,5.07
2023-05-15T05:19:46.440Z,6.63
2023-05-15T05:22:49.553Z,4.40
2023-05-15T05:25:55.512Z,3.60
2023-05-15T05:28:58.705Z,3.33
2023-05-15T05:32:02.286Z,3.33
2023-05-15T05:35:07.437Z,4.17
2023-05-15T05:38:10.528Z,3.60
2023-05-15T05:41:13.640Z,4.00
2023-05-15T05:44:16.744Z,4.93
2023-05-15T05:47:19.916Z,3.07
2023-05-15T05:50:24.793Z,3.97
2023-05-15T05:53:27.927Z,3.90
2023-05-15T05:56:31.163Z,3.47
2023-05-15T05:59:34.248Z,2.73
2023-05-15T06:02:38.252Z,3.57
2023-05-15T06:05:42.895Z,2.97
2023-05-15T06:08:46.057Z,4.80
2023-05-15T06:11:49.237Z,3.70
2023-05-15T06:14:52.513Z,2.63
2023-05-15T06:17:55.697Z,3.87
2023-05-15T06:21:00.617Z,3.87
2023-05-15T06:24:03.801Z,3.60
2023-05-15T06:27:07.168Z,2.77
2023-05-15T06:30:11.377Z,3.87
2023-05-15T06:33:14.610Z,3.50
2023-05-15T06:36:19.216Z,3.47
2023-05-15T06:39:22.320Z,3.53
2023-05-15T06:42:25.525Z,3.73
2023-05-15T06:45:29.073Z,3.60
2023-05-15T06:48:32.338Z,3.40
2023-05-15T06:51:36.806Z,5.80
2023-05-15T06:54:40.542Z,4.50
2023-05-15T06:57:43.674Z,6.27
2023-05-15T07:00:46.731Z,4.03
2023-05-15T07:03:49.802Z,4.97
2023-05-15T07:06:54.290Z,6.93
2023-05-15T07:09:57.416Z,5.90
2023-05-15T07:13:00.567Z,4.97
2023-05-15T07:16:04.866Z,5.00
2023-05-15T07:19:10.506Z,4.57
2023-05-15T07:22:15.144Z,4.50
2023-05-15T07:25:18.350Z,4.75
2023-05-15T07:28:21.691Z,4.95
2023-05-15T07:31:25.148Z,3.78
2023-05-15T07:34:28.288Z,4.07
2023-05-15T07:37:32.736Z,3.05
2023-05-15T07:40:35.869Z,2.70
2023-05-15T07:43:38.952Z,1.25
2023-05-15T07:46:42.068Z,1.35
2023-05-15T07:49:45.183Z,1.60
2023-05-15T07:52:49.663Z,2.13
2023-05-15T07:55:52.945Z,1.92
2023-05-15T07:58:56.177Z,2.35
2023-05-15T08:01:59.291Z,2.15
2023-05-15T08:05:02.369Z,1.13
2023-05-15T08:08:06.973Z,1.50
2023-05-15T08:11:10.106Z,1.00
2023-05-15T08:14:13.876Z,1.00
2023-05-15T08:17:17.211Z,1.00
2023-05-15T08:20:20.306Z,1.23
2023-05-15T08:23:24.851Z,1.33
2023-05-15T08:26:28.089Z,2.97
2023-05-15T08:29:31.285Z,3.42
2023-05-15T08:32:34.455Z,3.72
2023-05-15T08:35:37.862Z,3.05
2023-05-15T08:38:42.547Z,3.15
2023-05-15T08:41:52.280Z,6.63
2023-05-15T08:44:56.585Z,2.30
2023-05-15T08:48:01.745Z,0.80
2023-05-15T08:51:05.499Z,1.43
2023-05-15T08:54:10.605Z,2.70
2023-05-15T08:57:13.854Z,2.23
2023-05-15T09:00:21.007Z,1.40
2023-05-15T09:03:24.471Z,0.57
2023-05-15T09:06:29.160Z,1.03
2023-05-15T09:09:34.320Z,0.90
2023-05-15T09:12:42.645Z,1.13
2023-05-15T09:15:47.779Z,0.70
2023-05-15T09:18:51.392Z,0.70
2023-05-15T09:21:54.620Z,0.70
2023-05-15T09:24:59.094Z,1.33
2023-05-15T09:28:02.572Z,0.87
2023-05-15T09:31:06.515Z,0.70
2023-05-15T09:34:10.304Z,1.07
2023-05-15T09:37:31.115Z,0.90
2023-05-15T09:40:35.782Z,0.60
2023-05-15T09:43:40.128Z,0.83
2023-05-15T09:46:44.485Z,0.60
2023-05-15T09:49:47.979Z,2.07
2023-05-15T09:52:51.768Z,0.90
2023-05-15T09:55:56.327Z,1.23
2023-05-15T09:59:00.433Z,0.70
2023-05-15T10:02:03.688Z,0.87
2023-05-15T10:05:07.068Z,0.77
2023-05-15T10:08:10.544Z,0.67
2023-05-15T10:11:15.307Z,0.70
2023-05-15T10:14:19.663Z,0.77
2023-05-15T10:17:23.697Z,1.53
2023-05-15T10:20:27.733Z,0.70
2023-05-15T10:23:32.900Z,1.67
2023-05-15T10:26:39.902Z,0.57
2023-05-15T10:29:43.759Z,0.60
2023-05-15T10:32:47.769Z,0.70
2023-05-15T10:35:52.179Z,1.20
2023-05-15T10:38:55.468Z,0.60
2023-05-15T10:42:01.306Z,1.13
2023-05-15T10:45:04.672Z,0.60
2023-05-15T10:48:12.267Z,1.00
2023-05-15T10:51:17.542Z,1.23
2023-05-15T10:54:22.891Z,0.90
2023-05-15T10:57:31.373Z,1.43
2023-05-15T11:00:34.604Z,2.20
2023-05-15T11:03:48.649Z,0.70
2023-05-15T11:07:13.106Z,0.73
2023-05-15T11:10:37.762Z,1.70
2023-05-15T11:14:15.402Z,0.60
2023-05-15T11:17:19.362Z,0.60
2023-05-15T11:20:35.248Z,1.10
2023-05-15T11:23:41.987Z,0.70
2023-05-15T11:26:45.184Z,0.97
2023-05-15T11:30:12.728Z,1.13
2023-05-15T11:33:17.761Z,0.80
2023-05-15T11:36:25.964Z,0.60
2023-05-15T11:39:29.491Z,0.50
2023-05-15T11:42:33.514Z,0.60
2023-05-15T11:45:40.632Z,0.77
2023-05-15T11:48:47.687Z,0.70
2023-05-15T11:51:52.393Z,2.90
2023-05-15T11:54:56.189Z,1.57
2023-05-15T11:58:00.751Z,0.80
2023-05-15T12:01:05.362Z,0.60
2023-05-15T12:04:14.321Z,0.70
2023-05-15T12:07:18.848Z,0.60
2023-05-15T12:10:22.082Z,0.70
2023-05-15T12:13:26.296Z,1.30
2023-05-15T12:16:31.034Z,0.70
2023-05-15T12:19:35.950Z,1.20
2023-05-15T12:22:39.877Z,0.50
2023-05-15T12:25:44.541Z,0.83
2023-05-15T12:28:47.788Z,0.70
2023-05-15T12:31:54.116Z,3.70
2023-05-15T12:34:58.117Z,0.70
2023-05-15T12:38:01.363Z,0.70
2023-05-15T12:41:04.572Z,0.60
2023-05-15T12:44:07.785Z,0.60
2023-05-15T12:47:15.328Z,0.63
2023-05-15T12:50:19.350Z,1.40
2023-05-15T12:53:23.204Z,0.70
2023-05-15T12:56:26.425Z,0.77
2023-05-15T12:59:30.874Z,0.70
2023-05-15T13:02:35.454Z,0.53
2023-05-15T13:05:39.671Z,1.00
2023-05-15T13:08:44.259Z,0.50
2023-05-15T13:11:48.278Z,0.60
2023-05-15T13:14:51.427Z,1.50
2023-05-15T13:18:00.246Z,0.60
2023-05-15T13:21:03.761Z,1.03
2023-05-15T13:24:10.014Z,0.90
2023-05-15T13:27:13.165Z,0.80
2023-05-15T13:30:16.724Z,0.70
2023-05-15T13:33:21.324Z,0.70
2023-05-15T13:36:24.830Z,2.40
2023-05-15T13:39:27.986Z,1.30
2023-05-15T13:42:31.246Z,0.70
2023-05-15T13:45:34.632Z,0.60
2023-05-15T13:48:39.192Z,0.60
2023-05-15T13:51:42.605Z,0.93
2023-05-15T13:54:45.784Z,1.53
2023-05-15T13:57:48.990Z,0.93
2023-05-15T14:00:52.366Z,1.17
2023-05-15T14:03:56.924Z,1.73
2023-05-15T14:07:00.259Z,1.20
2023-05-15T14:10:03.892Z,0.60
2023-05-15T14:13:07.059Z,0.60
2023-05-15T14:16:10.214Z,0.80
2023-05-15T14:19:14.750Z,1.03
2023-05-15T14:22:17.907Z,2.20
2023-05-15T14:25:20.978Z,0.53
2023-05-15T14:28:24.101Z,0.50
2023-05-15T14:31:27.527Z,0.77
2023-05-15T14:34:32.554Z,1.37
2023-05-15T14:37:35.763Z,0.60
2023-05-15T14:40:38.974Z,0.70
2023-05-15T14:43:42.096Z,0.90
2023-05-15T14:46:45.562Z,1.27
2023-05-15T14:49:50.163Z,2.13
2023-05-15T14:52:53.348Z,2.30
2023-05-15T14:55:58.517Z,1.00
2023-05-15T14:59:01.646Z,1.47
2023-05-15T15:02:04.959Z,1.23
2023-05-15T15:05:10.551Z,0.60
2023-05-15T15:08:13.760Z,1.30
2023-05-15T15:11:17.056Z,0.60
2023-05-15T15:14:20.252Z,1.00
2023-05-15T15:17:23.618Z,0.70
2023-05-15T15:20:29.139Z,0.60
2023-05-15T15:23:32.360Z,2.33
2023-05-15T15:26:35.494Z,0.90
2023-05-15T15:29:38.691Z,1.90
2023-05-15T15:32:44.161Z,0.90
2023-05-15T15:35:48.719Z,1.60
2023-05-15T15:38:51.768Z,1.30
2023-05-15T15:41:54.977Z,3.03
2023-05-15T15:44:58.199Z,1.23
2023-05-15T15:48:01.366Z,1.47
2023-05-15T15:51:06.553Z,1.20
2023-05-15T15:54:09.616Z,2.80
2023-05-15T15:57:13.056Z,1.10
2023-05-15T16:00:16.886Z,1.63
2023-05-15T16:03:20.085Z,0.90
2023-05-15T16:06:24.630Z,2.10
2023-05-15T16:09:27.755Z,1.53
2023-05-15T16:12:30.906Z,1.70
2023-05-15T16:15:34.065Z,1.57
2023-05-15T16:18:37.438Z,1.80
2023-05-15T16:21:42.023Z,1.43
2023-05-15T16:24:45.064Z,1.03
2023-05-15T16:27:48.203Z,2.03
2023-05-15T16:30:52.154Z,5.43
2023-05-15T16:33:55.458Z,1.03
2023-05-15T16:36:59.988Z,0.80
2023-05-15T16:40:04.136Z,1.50
2023-05-15T16:43:10.295Z,1.23
2023-05-15T16:46:13.472Z,1.03
2023-05-15T16:49:16.679Z,0.90
2023-05-15T16:52:21.465Z,1.53
2023-05-15T16:55:24.638Z,1.80
2023-05-15T16:58:27.792Z,1.80
2023-05-15T17:01:31.168Z,0.70
2023-05-15T17:04:35.351Z,1.10
2023-05-15T17:07:40.405Z,1.17
2023-05-15T17:10:43.534Z,0.60
2023-05-15T17:13:46.709Z,1.33
2023-05-15T17:16:49.947Z,2.30
2023-05-15T17:19:53.188Z,1.43
2023-05-15T17:22:58.160Z,1.40
2023-05-15T17:26:01.297Z,1.97
2023-05-15T17:29:05.723Z,2.50
2023-05-15T17:32:09.450Z,1.10
2023-05-15T17:35:12.616Z,0.90
2023-05-15T17:38:17.186Z,1.27
2023-05-15T17:41:22.128Z,1.03
2023-05-15T17:44:27.945Z,1.17
2023-05-15T17:47:31.053Z,2.67
2023-05-15T17:50:37.979Z,2.10
2023-05-15T17:53:42.546Z,1.63
2023-05-15T17:56:45.785Z,1.23
2023-05-15T17:59:48.937Z,1.10
2023-05-15T18:02:52.193Z,1.17
2023-05-15T18:05:55.316Z,0.70
2023-05-15T18:09:00.879Z,0.83
2023-05-15T18:12:04.134Z,0.80
2023-05-15T18:15:09.483Z,1.13
2023-05-15T18:18:12.597Z,2.70
2023-05-15T18:21:16.188Z,1.27
2023-05-15T18:24:20.844Z,1.37
2023-05-15T18:27:23.986Z,1.87
2023-05-15T18:30:27.080Z,1.47
2023-05-15T18:33:30.279Z,1.10
2023-05-15T18:36:33.378Z,1.20
2023-05-15T18:39:39.961Z,1.60
2023-05-15T18:42:43.034Z,0.77
2023-05-15T18:45:46.433Z,1.07
2023-05-15T18:48:49.558Z,0.97
2023-05-15T18:51:52.971Z,3.93
2023-05-15T18:54:57.964Z,3.50
2023-05-15T18:58:01.107Z,1.37
2023-05-15T19:01:04.568Z,5.37
2023-05-15T19:04:08.347Z,0.93
2023-05-15T19:07:11.436Z,2.60
2023-05-15T19:10:16.116Z,1.93
2023-05-15T19:13:19.340Z,1.70
2023-05-15T19:16:22.577Z,2.10
2023-05-15T19:19:26.113Z,1.53
2023-05-15T19:22:29.176Z,4.00
2023-05-15T19:25:33.736Z,1.47
2023-05-15T19:28:36.883Z,1.93
2023-05-15T19:31:40.099Z,1.33
2023-05-15T19:34:43.204Z,1.13
2023-05-15T19:37:46.410Z,1.73
2023-05-15T19:40:50.904Z,1.50
2023-05-15T19:43:54.083Z,1.27
2023-05-15T19:46:57.344Z,1.40
2023-05-15T19:50:00.551Z,3.50
2023-05-15T19:53:03.618Z,3.53
2023-05-15T19:56:08.527Z,2.20
2023-05-15T19:59:11.839Z,3.07
2023-05-15T20:02:15.197Z,3.03
2023-05-15T20:05:18.839Z,2.77
2023-05-15T20:08:22.124Z,1.77
2023-05-15T20:11:26.750Z,2.80
2023-05-15T20:14:29.877Z,2.07
2023-05-15T20:17:34.922Z,1.63
2023-05-15T20:20:38.197Z,2.33
2023-05-15T20:23:41.313Z,1.80
2023-05-15T20:26:46.040Z,2.50
2023-05-15T20:29:49.092Z,2.30
2023-05-15T20:32:52.417Z,6.13
2023-05-15T20:35:55.675Z,3.20
2023-05-15T20:38:58.987Z,2.70
2023-05-15T20:42:03.498Z,6.80
2023-05-15T20:45:08.648Z,3.50
2023-05-15T20:48:11.992Z,1.83
2023-05-15T20:51:17.878Z,3.00
2023-05-15T20:54:20.992Z,2.53
2023-05-15T20:57:25.451Z,2.10
2023-05-15T21:00:28.797Z,2.37
2023-05-15T21:03:32.175Z,4.43
2023-05-15T21:06:35.491Z,2.73
2023-05-15T21:09:38.615Z,3.83
2023-05-15T21:12:43.234Z,1.73
2023-05-15T21:15:46.812Z,1.50
2023-05-15T21:18:49.954Z,3.40
2023-05-15T21:21:53.044Z,2.30
2023-05-15T21:24:56.171Z,2.23
2023-05-15T21:28:00.650Z,1.80
2023-05-15T21:31:08.253Z,2.13
2023-05-15T21:34:11.535Z,2.50
2023-05-15T21:37:14.693Z,5.87
2023-05-15T21:40:18.003Z,2.93
2023-05-15T21:43:22.522Z,3.27
2023-05-15T21:46:25.708Z,2.60
2023-05-15T21:49:28.793Z,1.87
2023-05-15T21:52:31.921Z,2.03
2023-05-15T21:55:35.087Z,2.50
2023-05-15T21:58:39.647Z,7.13
2023-05-15T22:01:42.838Z,4.80
2023-05-15T22:04:46.145Z,2.77
2023-05-15T22:07:49.300Z,2.60
2023-05-15T22:10:52.459Z,2.23
2023-05-15T22:13:57.021Z,2.17
2023-05-15T22:17:00.125Z,2.70
2023-05-15T22:20:07.968Z,2.43
2023-05-15T22:23:11.572Z,3.57
2023-05-15T22:26:14.675Z,2.67
2023-05-15T22:29:19.402Z,1.97
2023-05-15T22:32:25.683Z,2.57
2023-05-15T22:35:29.329Z,2.53
2023-05-15T22:38:32.642Z,2.20
2023-05-15T22:41:35.743Z,3.20
2023-05-15T22:44:40.231Z,1.40
2023-05-15T22:47:43.464Z,2.53
2023-05-15T22:50:46.574Z,3.07
2023-05-15T22:53:49.622Z,1.83
2023-05-15T22:56:53.608Z,1.97
2023-05-15T22:59:58.250Z,1.63
2023-05-15T23:03:01.440Z,2.47
2023-05-15T23:06:04.745Z,1.93
2023-05-15T23:09:08.524Z,3.20
2023-05-15T23:12:11.652Z,3.00
2023-05-15T23:15:16.320Z,1.77
2023-05-15T23:18:19.619Z,2.37
2023-05-15T23:21:22.802Z,2.03
2023-05-15T23:24:26.110Z,2.77
2023-05-15T23:27:29.169Z,1.80
2023-05-15T23:30:34.043Z,2.30
2023-05-15T23:33:38.152Z,2.37
2023-05-15T23:36:41.315Z,2.10
2023-05-15T23:39:44.386Z,2.47
2023-05-15T23:42:47.520Z,2.30
2023-05-15T23:45:52.062Z,2.17
2023-05-15T23:48:55.152Z,2.53
2023-05-15T23:51:58.235Z,2.10
2023-05-15T23:55:01.878Z,3.50
2023-05-15T23:58:05.143Z,5.60
